Time;durP1;ratioP1;P1;durP2;ratioP2;P2;SDS_P1;SDS_P2;PMS_P1;PMS_P2;Temp;Humidity;BMP_temperature;BMP_pressure;BME280_temperature;BME280_humidity;BME280_pressure;Samples;Min_cycle;Max_cycle;Signal;HPM_P1;HPM_P2
2022/01/24 00:00:14;;;;;;;35.22;18.42;;;;;;;4.50;90.66;103428.94;5092135;28;20048;-71
2022/01/24 00:02:42;;;;;;;31.25;18.17;;;;;;;4.51;90.44;103430.66;5092042;28;20043;-71
2022/01/24 00:05:08;;;;;;;31.08;18.02;;;;;;;4.49;89.92;103432.53;5092467;28;20048;-71
2022/01/24 00:07:33;;;;;;;33.65;16.88;;;;;;;4.50;89.18;103434.22;5091899;28;20032;-71
2022/01/24 00:10:03;;;;;;;30.77;16.92;;;;;;;4.50;88.34;103433.38;5090732;28;20042;-71
2022/01/24 00:18:25;;;;;;;34.67;17.35;;;;;;;4.51;88.88;103430.66;5086063;28;20364;-71
2022/01/24 00:26:45;;;;;;;31.92;17.10;;;;;;;4.51;87.01;103429.81;5060084;28;20036;-71
2022/01/24 00:29:10;;;;;;;29.90;17.77;;;;;;;4.51;85.93;103429.81;5091540;28;20035;-71
2022/01/24 00:31:36;;;;;;;29.50;16.80;;;;;;;4.51;86.36;103427.16;5091531;28;20028;-71
2022/01/24 00:34:01;;;;;;;28.35;15.27;;;;;;;4.51;87.45;103421.88;5091379;28;20111;-71
2022/01/24 00:36:27;;;;;;;29.52;15.38;;;;;;;4.49;86.99;103418.47;5090734;28;20122;-71
2022/01/24 00:38:52;;;;;;;30.65;15.75;;;;;;;4.46;86.03;103426.59;5091435;28;20027;-71
2022/01/24 00:41:20;;;;;;;26.95;15.85;;;;;;;4.48;86.47;103420.28;5091579;28;20023;-71
2022/01/24 00:44:13;;;;;;;33.25;15.63;;;;;;;4.47;86.54;103415.06;5091633;28;20449;-71
2022/01/24 00:46:44;;;;;;;31.83;16.20;;;;;;;4.46;86.78;103418.66;5091079;28;20044;-71
2022/01/24 00:55:03;;;;;;;29.00;14.68;;;;;;;4.45;87.16;103414.31;5091347;28;20062;-71
2022/01/24 00:57:04;;;;;;;30.60;15.65;;;;;;;4.44;85.97;103417.91;5083594;28;20127;-71
2022/01/24 00:59:30;;;;;;;30.00;17.00;;;;;;;4.45;86.96;103422.22;5091051;28;20175;-71
2022/01/24 01:01:56;;;;;;;31.70;15.75;;;;;;;4.43;87.34;103411.78;5091007;28;20028;-71
2022/01/24 01:04:26;;;;;;;29.60;16.38;;;;;;;4.40;85.38;103409.28;5090836;28;20424;-71
2022/01/24 01:06:53;;;;;;;28.77;15.23;;;;;;;4.42;85.65;103403.94;5090218;28;20027;-71
2022/01/24 01:20:22;;;;;;;28.00;15.07;;;;;;;4.33;84.99;103389.50;5091215;28;20617;-71
2022/01/24 01:22:48;;;;;;;27.25;13.75;;;;;;;4.40;85.41;103401.38;5089538;28;20024;-71
2022/01/24 01:25:14;;;;;;;23.73;11.23;;;;;;;4.35;85.29;103400.81;5090455;28;20028;-71
2022/01/24 01:27:43;;;;;;;26.08;14.07;;;;;;;4.39;84.66;103404.97;5090435;28;20039;-71
2022/01/24 01:30:16;;;;;;;25.52;12.73;;;;;;;4.38;85.74;103414.69;5090573;28;20039;-71
2022/01/24 01:33:00;;;;;;;25.77;12.07;;;;;;;4.38;86.35;103408.56;5090360;28;20479;-71
2022/01/24 01:57:01;;;;;;;25.73;13.57;;;;;;;4.22;85.47;103395.44;5070631;28;20487;-71
2022/01/24 01:59:27;;;;;;;26.55;13.30;;;;;;;4.30;84.91;103400.25;5070697;28;20427;-71
2022/01/24 02:01:52;;;;;;;25.27;14.48;;;;;;;4.30;85.17;103408.19;5070481;28;20033;-71
2022/01/24 02:04:19;;;;;;;26.55;14.07;;;;;;;4.29;85.46;103399.38;5070379;28;20418;-71
2022/01/24 02:06:44;;;;;;;26.60;11.57;;;;;;;4.27;85.22;103403.94;5089850;28;20106;-71
2022/01/24 02:09:11;;;;;;;24.52;11.98;;;;;;;4.30;85.64;103395.81;5088445;28;20021;-71
2022/01/24 02:11:37;;;;;;;25.08;11.73;;;;;;;4.31;85.76;103391.38;5089640;28;20047;-71
2022/01/24 02:14:07;;;;;;;26.30;14.25;;;;;;;4.31;84.19;103394.84;5089531;28;20036;-71
2022/01/24 02:16:51;;;;;;;22.92;11.98;;;;;;;4.29;83.08;103388.81;5089323;28;20080;-71
2022/01/24 02:24:30;;;;;;;25.27;13.32;;;;;;;4.26;83.24;103383.72;5089514;28;20036;-71
2022/01/24 02:26:56;;;;;;;26.08;12.82;;;;;;;4.26;83.48;103380.22;5088211;28;20047;-71
2022/01/24 02:31:49;;;;;;;22.95;11.77;;;;;;;4.27;83.92;103388.06;5088128;28;20036;-71
2022/01/24 02:34:35;;;;;;;24.85;13.35;;;;;;;4.28;83.07;103387.13;5088869;28;20081;-71
2022/01/24 02:37:05;;;;;;;21.17;10.30;;;;;;;4.27;83.08;103382.78;5069927;28;20123;-71
2022/01/24 02:50:58;;;;;;;20.50;10.55;;;;;;;4.24;81.91;103380.31;5089568;28;20097;-71
2022/01/24 02:53:21;;;;;;;21.55;9.13;;;;;;;4.19;82.08;103371.81;5088900;28;20047;-71
2022/01/24 02:55:47;;;;;;;21.08;11.20;;;;;;;4.24;82.22;103376.81;5089192;28;20057;-71
2022/01/24 02:58:13;;;;;;;21.45;10.25;;;;;;;4.25;83.95;103379.38;5089246;28;20040;-71
2022/01/24 03:00:39;;;;;;;20.23;10.30;;;;;;;4.25;83.18;103378.53;5092406;28;20372;-71
2022/01/24 03:03:05;;;;;;;21.10;10.00;;;;;;;4.23;82.80;103378.63;5093233;28;20483;-71
2022/01/24 03:05:31;;;;;;;20.60;10.88;;;;;;;4.18;83.61;103362.19;5093172;28;20081;-71
2022/01/24 03:07:57;;;;;;;21.10;9.77;;;;;;;4.20;83.59;103364.75;5093148;28;20048;-71
2022/01/24 03:10:36;;;;;;;18.63;9.02;;;;;;;4.21;84.54;103364.66;5093005;28;20040;-71
2022/01/24 03:15:47;;;;;;;16.88;8.55;;;;;;;4.20;83.11;103362.13;5092982;28;20530;-71
2022/01/24 03:18:13;;;;;;;18.90;10.02;;;;;;;4.20;83.50;103368.25;5093095;28;20028;-71
2022/01/24 03:20:39;;;;;;;21.25;9.85;;;;;;;4.20;83.58;103362.13;5073452;28;20365;-71
2022/01/24 03:23:05;;;;;;;19.08;9.13;;;;;;;4.18;83.13;103359.56;5092066;28;20615;-71
2022/01/24 03:25:31;;;;;;;22.98;11.60;;;;;;;4.18;83.53;103362.19;5092562;28;20032;-71
2022/01/24 03:27:56;;;;;;;22.60;11.98;;;;;;;4.16;82.96;103354.34;5092505;28;20039;-71
2022/01/24 03:30:23;;;;;;;21.38;10.32;;;;;;;4.17;83.15;103361.34;5092737;28;20034;-71
2022/01/24 03:32:48;;;;;;;18.35;8.88;;;;;;;4.16;84.50;103362.28;5092555;28;20149;-71
2022/01/24 03:35:14;;;;;;;21.52;9.93;;;;;;;4.15;82.88;103347.38;5092473;28;20036;-71
2022/01/24 03:37:39;;;;;;;20.00;9.43;;;;;;;4.11;82.46;103345.91;5092566;28;20031;-71
2022/01/24 03:40:05;;;;;;;21.08;10.80;;;;;;;4.12;83.70;103349.38;5092473;28;20032;-71
2022/01/24 03:42:31;;;;;;;21.90;10.45;;;;;;;4.13;84.54;103351.91;5092385;28;20538;-71
2022/01/24 03:45:00;;;;;;;19.45;9.32;;;;;;;4.15;83.65;103357.94;5091258;28;20074;-71
2022/01/24 03:50:01;;;;;;;20.95;10.75;;;;;;;4.16;83.68;103358.78;5092230;28;20040;-71
2022/01/24 03:52:30;;;;;;;22.13;10.60;;;;;;;4.17;85.28;103360.50;5092148;28;20031;-71
2022/01/24 03:54:56;;;;;;;19.08;9.23;;;;;;;4.14;84.72;103360.72;5080851;28;20111;-71
2022/01/24 03:57:22;;;;;;;22.05;10.80;;;;;;;4.12;84.27;103352.84;5072397;28;20031;-71
2022/01/24 03:59:47;;;;;;;21.98;11.48;;;;;;;4.11;83.37;103350.31;5072696;28;20036;-71
2022/01/24 04:02:13;;;;;;;23.88;9.52;;;;;;;4.12;83.15;103352.03;5072846;28;20112;-71
2022/01/24 04:04:39;;;;;;;21.50;10.73;;;;;;;4.11;82.29;103352.94;5072895;28;20060;-71
2022/01/24 04:07:05;;;;;;;20.75;10.77;;;;;;;4.14;83.66;103352.78;5072687;28;20111;-71
2022/01/24 04:09:30;;;;;;;23.70;10.45;;;;;;;4.06;83.87;103332.13;5077726;28;20126;-71
2022/01/24 04:11:58;;;;;;;20.80;10.60;;;;;;;4.12;83.74;103350.22;5089247;28;20032;-71
2022/01/24 04:17:19;;;;;;;20.42;10.18;;;;;;;4.10;84.53;103353.91;5092122;28;20036;-71
2022/01/24 04:22:32;;;;;;;21.65;9.65;;;;;;;4.03;85.18;103337.56;5091753;28;20036;-71
2022/01/24 04:25:03;;;;;;;19.90;9.43;;;;;;;4.10;84.79;103351.25;5072479;28;20019;-71
2022/01/24 04:27:30;;;;;;;20.92;9.95;;;;;;;4.07;84.63;103340.88;5091597;28;20413;-71
2022/01/24 04:29:56;;;;;;;23.50;10.60;;;;;;;4.06;84.67;103350.59;5091695;28;20035;-71
2022/01/24 04:32:23;;;;;;;20.52;9.32;;;;;;;4.01;85.90;103341.22;5091630;28;20046;-71
2022/01/24 04:34:48;;;;;;;23.88;11.35;;;;;;;3.99;85.02;103341.34;5091524;28;20032;-71
2022/01/24 04:37:15;;;;;;;23.27;10.43;;;;;;;4.03;84.89;103353.41;5091528;28;20375;-71
2022/01/24 04:39:41;;;;;;;21.90;10.75;;;;;;;3.99;84.27;103345.78;5091327;28;20493;-71
2022/01/24 04:42:14;;;;;;;23.88;11.57;;;;;;;4.02;84.47;103357.00;5091539;28;20106;-71
2022/01/24 04:47:22;;;;;;;;;;;;;;;4.06;85.45;103355.00;5091649;28;20467;-71
2022/01/24 04:54:57;;;;;;;22.70;12.35;;;;;;;4.04;84.56;103355.13;5091285;28;20032;-71
2022/01/24 04:57:24;;;;;;;22.95;10.38;;;;;;;4.02;83.05;103351.72;5090844;28;20024;-71
2022/01/24 04:59:52;;;;;;;21.13;10.50;;;;;;;3.97;82.56;103345.84;5090779;28;20053;-71
2022/01/24 05:02:19;;;;;;;21.70;10.52;;;;;;;4.03;83.39;103350.75;5089575;28;20525;-71
2022/01/24 05:04:45;;;;;;;23.90;11.98;;;;;;;4.00;83.25;103355.38;5090869;28;20039;-71
2022/01/24 05:07:11;;;;;;;21.65;11.73;;;;;;;4.00;83.48;103350.09;5090777;28;20023;-71
2022/01/24 05:09:44;;;;;;;24.17;10.57;;;;;;;4.02;84.09;103358.78;5090941;28;20039;-71
2022/01/24 05:12:19;;;;;;;23.35;11.73;;;;;;;4.01;84.98;103357.94;5090786;28;20115;-71
2022/01/24 05:25:40;;;;;;;22.30;10.38;;;;;;;3.99;84.55;103348.41;5090809;28;20034;-71
2022/01/24 05:28:05;;;;;;;23.08;10.57;;;;;;;4.00;84.06;103350.94;5089160;28;20114;-71
2022/01/24 05:30:31;;;;;;;20.65;10.27;;;;;;;4.00;84.12;103348.31;5090642;28;20040;-71
2022/01/24 05:32:56;;;;;;;22.75;11.35;;;;;;;3.99;84.32;103356.34;5090392;28;20123;-71
2022/01/24 05:35:21;;;;;;;20.15;10.65;;;;;;;3.93;84.42;103344.34;5090254;28;20039;-71
2022/01/24 05:37:47;;;;;;;21.90;12.05;;;;;;;3.99;83.84;103351.06;5090252;28;20020;-71
2022/01/24 05:40:12;;;;;;;24.38;12.40;;;;;;;3.99;83.71;103351.06;5090275;28;20131;-71
2022/01/24 05:42:38;;;;;;;22.52;10.43;;;;;;;3.99;84.75;103348.41;5090536;28;20065;-71
2022/01/24 05:45:05;;;;;;;23.35;11.32;;;;;;;3.97;84.50;103348.50;5090307;28;20032;-71
2022/01/24 05:47:31;;;;;;;22.88;10.75;;;;;;;3.97;83.52;103353.78;5090093;28;20025;-71
2022/01/24 05:49:56;;;;;;;24.88;13.77;;;;;;;3.97;83.92;103355.56;5090046;28;20035;-71
2022/01/24 05:52:21;;;;;;;24.13;12.23;;;;;;;3.97;84.01;103356.41;5088717;28;20028;-71
2022/01/24 05:54:47;;;;;;;24.60;11.77;;;;;;;3.96;83.52;103360.00;5089900;28;20036;-71
2022/01/24 05:57:12;;;;;;;24.20;11.43;;;;;;;3.96;84.41;103357.38;5090097;28;20040;-71
2022/01/24 05:59:38;;;;;;;22.17;10.50;;;;;;;3.95;84.58;103361.78;5089680;28;20111;-71
2022/01/24 06:02:04;;;;;;;23.08;12.27;;;;;;;3.95;84.23;103358.28;5089887;28;20042;-71
2022/01/24 06:04:30;;;;;;;24.10;11.35;;;;;;;3.94;83.95;103360.09;5089572;28;20036;-71
2022/01/24 06:06:55;;;;;;;23.92;12.38;;;;;;;3.94;84.98;103362.72;5089934;28;20121;-71
2022/01/24 06:09:20;;;;;;;24.30;13.65;;;;;;;3.89;83.90;103348.94;5088292;28;20055;-71
2022/01/24 06:11:46;;;;;;;21.60;13.55;;;;;;;3.92;83.50;103359.31;5089484;28;20070;-71
2022/01/24 06:14:11;;;;;;;24.65;12.88;;;;;;;3.92;83.08;103356.69;5089381;28;20115;-71
2022/01/24 06:16:37;;;;;;;23.52;11.98;;;;;;;3.84;83.86;103337.81;5089535;28;20467;-71
2022/01/24 06:19:03;;;;;;;23.73;11.75;;;;;;;3.91;84.11;103356.78;5089439;28;20027;-71
2022/01/24 06:21:28;;;;;;;25.30;10.52;;;;;;;3.90;84.86;103366.50;5089581;28;20391;-71
2022/01/24 06:23:54;;;;;;;22.95;11.77;;;;;;;3.90;84.40;103361.22;5089458;28;20088;-71
2022/01/24 06:26:19;;;;;;;23.55;11.75;;;;;;;3.88;84.85;103364.91;5089462;28;20035;-71
2022/01/24 06:28:45;;;;;;;23.70;12.00;;;;;;;3.88;85.47;103371.03;5089393;28;20032;-71
2022/01/24 06:31:10;;;;;;;22.65;12.23;;;;;;;3.86;85.73;103364.97;5088164;28;20032;-71
2022/01/24 06:33:36;;;;;;;23.13;11.85;;;;;;;3.75;85.35;103351.56;5088820;28;20536;-71
2022/01/24 06:36:01;;;;;;;22.15;11.40;;;;;;;3.81;86.29;103361.75;5089221;28;20032;-71
2022/01/24 06:38:26;;;;;;;24.65;12.27;;;;;;;3.78;85.77;103348.75;5089273;28;20020;-71
2022/01/24 06:40:52;;;;;;;25.42;12.48;;;;;;;3.79;86.37;103354.88;5089136;28;20447;-71
2022/01/24 06:43:17;;;;;;;23.70;12.02;;;;;;;3.78;85.62;103355.81;5089295;28;20035;-71
2022/01/24 06:45:43;;;;;;;25.40;13.05;;;;;;;3.72;85.80;103351.72;5089516;28;20111;-71
2022/01/24 06:48:09;;;;;;;24.80;12.20;;;;;;;3.73;83.70;103354.28;5089201;28;20471;-71
2022/01/24 06:50:34;;;;;;;24.23;12.50;;;;;;;3.74;84.82;103361.25;5089120;28;20097;-71
2022/01/24 06:53:00;;;;;;;24.38;13.60;;;;;;;3.74;84.34;103363.88;5089070;28;20051;-71
2022/01/24 06:55:25;;;;;;;25.40;14.10;;;;;;;3.72;84.10;103352.59;5089008;28;20023;-71
2022/01/24 06:57:50;;;;;;;27.10;13.02;;;;;;;3.72;84.23;103359.63;5087898;28;20024;-71
2022/01/24 07:00:16;;;;;;;25.58;12.95;;;;;;;3.65;83.30;103353.88;5089227;28;20024;-71
2022/01/24 07:02:41;;;;;;;30.55;14.70;;;;;;;3.69;83.31;103351.91;5088637;28;21042;-71
2022/01/24 07:05:07;;;;;;;31.60;15.85;;;;;;;3.68;83.44;103360.78;5089034;28;20039;-71
2022/01/24 07:07:33;;;;;;;30.67;13.48;;;;;;;3.63;84.10;103352.28;5088521;28;20070;-71
2022/01/24 07:10:00;;;;;;;28.73;14.77;;;;;;;3.67;83.80;103370.50;5088955;28;20074;-71
2022/01/24 07:12:25;;;;;;;27.02;14.65;;;;;;;3.66;83.91;103373.19;5088806;28;20380;-71
2022/01/24 07:14:52;;;;;;;28.65;15.80;;;;;;;3.66;84.01;103365.28;5088532;28;20055;-71
2022/01/24 07:19:45;;;;;;;25.33;14.00;;;;;;;3.65;83.57;103361.81;5068570;28;20028;-71
2022/01/24 07:22:11;;;;;;;28.00;14.15;;;;;;;3.66;83.87;103373.19;5088758;28;20118;-72
2022/01/24 07:24:37;;;;;;;29.55;15.05;;;;;;;3.64;84.40;103375.94;5088833;28;20426;-71
2022/01/24 07:27:03;;;;;;;32.55;15.82;;;;;;;3.65;83.44;103380.28;5087285;28;20495;-72
2022/01/24 07:29:29;;;;;;;30.50;17.38;;;;;;;3.66;81.88;103376.69;5088684;28;20032;-71
2022/01/24 07:31:54;;;;;;;32.00;17.25;;;;;;;3.61;82.58;103373.47;5088861;28;20038;-71
2022/01/24 07:34:20;;;;;;;31.05;16.60;;;;;;;3.65;83.10;103380.28;5088617;28;20032;-71
2022/01/24 07:36:45;;;;;;;33.15;17.13;;;;;;;3.65;82.95;103380.28;5088800;28;20463;-71
2022/01/24 07:39:12;;;;;;;28.75;14.32;;;;;;;3.65;82.44;103377.63;5088273;28;20032;-71
2022/01/24 07:41:44;;;;;;;29.88;17.38;;;;;;;3.66;82.14;103376.69;5088798;28;20023;-71
2022/01/24 07:44:09;;;;;;;32.13;15.13;;;;;;;3.66;83.59;103374.03;5088838;28;20067;-71
2022/01/24 07:46:35;;;;;;;32.10;16.27;;;;;;;3.67;82.47;103375.75;5091549;28;20424;-71
2022/01/24 07:49:07;;;;;;;31.45;15.32;;;;;;;3.66;83.30;103379.31;5092132;28;20385;-71
2022/01/24 07:51:33;;;;;;;30.90;15.65;;;;;;;3.68;82.96;103392.44;5092239;28;20034;-71
2022/01/24 07:53:58;;;;;;;30.02;15.82;;;;;;;3.66;83.79;103392.53;5092231;28;20032;-71
2022/01/24 07:56:24;;;;;;;32.15;15.32;;;;;;;3.69;83.33;103405.56;5090951;28;20363;-72
2022/01/24 07:58:49;;;;;;;33.55;17.55;;;;;;;3.69;83.12;103409.97;5092078;28;20081;-71
2022/01/24 08:01:15;;;;;;;31.42;15.65;;;;;;;3.67;82.84;103414.50;5092126;28;20070;-72
2022/01/24 08:03:41;;;;;;;34.75;16.42;;;;;;;3.69;83.04;103413.47;5091694;28;20108;-72
2022/01/24 08:06:07;;;;;;;31.55;15.38;;;;;;;3.71;82.99;103413.38;5091712;28;20093;-71
2022/01/24 08:08:33;;;;;;;32.55;16.90;;;;;;;3.74;83.17;103414.03;5091844;28;20028;-71
2022/01/24 08:10:58;;;;;;;33.72;16.48;;;;;;;3.75;83.08;103412.28;5091999;28;20403;-71
2022/01/24 08:13:23;;;;;;;34.13;16.48;;;;;;;3.76;82.79;103418.41;5090817;28;20032;-71
2022/01/24 08:15:49;;;;;;;33.00;16.73;;;;;;;3.75;83.19;103407.00;5091764;28;20056;-71
2022/01/24 08:18:14;;;;;;;29.05;15.32;;;;;;;3.79;83.13;103413.78;5091854;28;20428;-71
2022/01/24 08:20:41;;;;;;;33.85;15.95;;;;;;;3.78;82.94;103412.09;5090404;28;20039;-71
2022/01/24 08:23:08;;;;;;;29.45;15.55;;;;;;;3.77;83.67;103415.66;5091778;28;20054;-74
2022/01/24 08:25:34;;;;;;;28.80;14.88;;;;;;;3.74;84.31;103408.75;5081139;28;20043;-70
2022/01/24 08:27:59;;;;;;;32.30;14.73;;;;;;;3.77;84.74;103407.72;5072223;28;20029;-70
2022/01/24 08:30:25;;;;;;;29.70;14.50;;;;;;;3.80;84.85;103406.69;5071132;28;20040;-70
2022/01/24 08:32:51;;;;;;;31.88;16.15;;;;;;;3.79;84.96;103405.88;5072270;28;20066;-70
2022/01/24 08:35:19;;;;;;;33.05;16.35;;;;;;;3.85;85.82;103413.44;5072119;28;20033;-70
2022/01/24 08:37:44;;;;;;;30.02;14.75;;;;;;;3.85;84.99;103409.94;5091306;28;20031;-70
2022/01/24 08:40:12;;;;;;;32.15;15.55;;;;;;;3.80;84.67;103407.59;5091518;28;20028;-70
2022/01/24 08:42:45;;;;;;;29.70;14.02;;;;;;;3.88;85.26;103420.34;5091394;28;20043;-71
2022/01/24 08:47:56;;;;;;;28.55;15.02;;;;;;;3.84;85.65;103422.28;5091499;28;20050;-70
2022/01/24 08:50:26;;;;;;;27.52;14.75;;;;;;;3.85;86.02;103416.09;5090032;28;20434;-70
2022/01/24 08:52:53;;;;;;;28.60;13.57;;;;;;;3.86;86.73;103420.41;5091086;28;20028;-70
2022/01/24 08:55:18;;;;;;;28.40;14.98;;;;;;;3.89;86.62;103422.03;5091133;28;20036;-70
2022/01/24 08:57:43;;;;;;;26.85;15.40;;;;;;;3.81;86.62;103403.16;5090609;28;20371;-70
2022/01/24 09:00:09;;;;;;;27.27;15.15;;;;;;;3.89;86.17;103417.59;5089106;28;20036;-70
2022/01/24 09:02:35;;;;;;;24.27;14.07;;;;;;;3.90;86.26;103419.31;5071997;28;20032;-72
2022/01/24 09:05:01;;;;;;;25.25;13.77;;;;;;;3.89;86.32;103414.09;5090849;28;20040;-71
2022/01/24 09:07:29;;;;;;;25.60;14.02;;;;;;;3.88;85.65;103396.56;5090718;28;20428;-72
2022/01/24 09:09:55;;;;;;;35.28;17.10;;;;;;;3.95;85.62;103411.09;5089688;28;20079;-72
2022/01/24 09:12:20;;;;;;;27.63;13.45;;;;;;;3.96;85.84;103423.38;5090757;28;20035;-72
2022/01/24 09:14:47;;;;;;;25.70;13.68;;;;;;;3.98;85.48;103408.28;5090699;28;20139;-72
2022/01/24 09:17:14;;;;;;;26.45;15.05;;;;;;;4.03;85.40;103415.94;5090842;28;20040;-72
2022/01/24 09:19:39;;;;;;;25.50;12.15;;;;;;;3.99;84.09;103417.91;5090686;28;20029;-73
2022/01/24 09:22:05;;;;;;;25.80;13.57;;;;;;;4.06;83.96;103426.31;5086107;28;20031;-73
2022/01/24 09:24:31;;;;;;;25.98;14.20;;;;;;;4.10;83.96;103420.75;5071209;28;20086;-72
2022/01/24 09:26:57;;;;;;;24.23;13.23;;;;;;;4.08;84.07;103409.44;5085591;28;20451;-73
2022/01/24 09:29:22;;;;;;;25.25;14.30;;;;;;;4.18;83.86;103415.03;5090483;28;20047;-71
2022/01/24 09:31:48;;;;;;;23.88;11.05;;;;;;;4.23;83.99;103417.41;5089212;28;20028;-71
2022/01/24 09:34:13;;;;;;;25.52;13.35;;;;;;;4.28;84.24;103420.63;5090614;28;20085;-71
2022/01/24 09:36:38;;;;;;;25.08;13.02;;;;;;;4.28;84.88;103410.06;5090400;28;20028;-71
2022/01/24 09:39:04;;;;;;;22.67;12.60;;;;;;;4.29;84.38;103412.59;5082171;28;20123;-72
2022/01/24 09:41:30;;;;;;;23.63;13.05;;;;;;;4.34;83.50;103413.16;5070754;28;20028;-73
2022/01/24 09:43:55;;;;;;;22.60;12.60;;;;;;;4.37;82.69;103412.97;5070822;28;20502;-72
2022/01/24 09:46:21;;;;;;;22.08;10.65;;;;;;;4.36;83.11;103410.44;5070863;28;20040;-72
2022/01/24 09:48:47;;;;;;;24.35;11.40;;;;;;;4.46;82.71;103419.50;5070065;28;20052;-73
2022/01/24 09:51:12;;;;;;;21.83;10.70;;;;;;;4.50;83.28;103420.16;5070473;28;20071;-72
2022/01/24 09:53:38;;;;;;;22.15;11.75;;;;;;;4.48;82.70;103415.00;5070601;28;20024;-72
2022/01/24 09:56:04;;;;;;;24.65;11.55;;;;;;;4.47;84.12;103405.34;5086914;28;20040;-72
2022/01/24 09:58:34;;;;;;;23.10;12.82;;;;;;;4.49;83.77;103408.75;5070541;28;20035;-72
2022/01/24 10:01:01;;;;;;;22.10;11.10;;;;;;;4.49;83.14;103408.75;5070703;28;20043;-72
2022/01/24 10:03:27;;;;;;;21.60;11.32;;;;;;;4.51;83.63;103421.88;5070513;28;20036;-72
2022/01/24 10:05:55;;;;;;;26.50;12.57;;;;;;;4.49;83.08;103415.84;5083567;28;20108;-72
2022/01/24 10:08:24;;;;;;;19.90;10.85;;;;;;;4.53;83.37;103412.03;5088859;28;20068;-72
2022/01/24 10:10:58;;;;;;;23.02;11.98;;;;;;;4.64;83.92;103412.25;5089545;28;20051;-71
2022/01/24 10:16:35;;;;;;;24.05;10.88;;;;;;;4.75;83.30;103406.31;5089547;28;20180;-72
2022/01/24 10:19:08;;;;;;;20.27;10.65;;;;;;;4.78;81.46;103408.75;5089823;28;20042;-72
2022/01/24 10:21:43;;;;;;;25.10;11.85;;;;;;;4.78;81.87;103399.03;5089890;28;20020;-72
2022/01/24 10:24:35;;;;;;;20.95;10.65;;;;;;;4.84;81.13;103397.78;5079493;28;20111;-72
2022/01/24 10:27:24;;;;;;;20.95;11.77;;;;;;;4.97;80.85;103406.63;5089477;28;20072;-72
2022/01/24 10:29:57;;;;;;;19.95;10.90;;;;;;;4.95;78.93;103395.34;5089772;28;20039;-72
2022/01/24 10:32:28;;;;;;;20.83;10.13;;;;;;;5.08;78.26;103407.75;5089446;28;20475;-72
2022/01/24 10:34:54;;;;;;;20.13;9.93;;;;;;;5.14;79.41;103400.28;5073453;28;20047;-72
2022/01/24 10:37:23;;;;;;;19.52;11.05;;;;;;;5.05;76.88;103399.06;5087111;28;20028;-72
2022/01/24 10:40:05;;;;;;;20.67;10.48;;;;;;;5.02;76.99;103403.72;5088190;28;20391;-72
2022/01/24 10:43:15;;;;;;;17.23;8.68;;;;;;;4.94;78.15;103385.69;5072303;28;20035;-74
2022/01/24 10:45:20;;;;;;;19.85;9.43;;;;;;;5.07;78.68;103384.91;5062273;28;20086;-72
2022/01/24 10:47:49;;;;;;;19.00;9.55;;;;;;;5.27;78.86;103393.28;5073976;28;20055;-72
2022/01/24 10:50:23;;;;;;;18.90;9.70;;;;;;;5.46;78.19;103384.13;5073945;28;20028;-72
2022/01/24 10:52:48;;;;;;;20.33;9.93;;;;;;;5.54;75.58;103378.34;5073270;28;20028;-72
2022/01/24 10:55:16;;;;;;;20.52;9.27;;;;;;;5.62;76.23;103391.91;5074763;28;20050;-71
2022/01/24 10:57:43;;;;;;;21.63;9.80;;;;;;;5.66;76.51;103386.31;5073253;28;20412;-71
2022/01/24 11:00:13;;;;;;;19.55;9.45;;;;;;;5.74;76.96;103387.59;5073407;28;20399;-70
2022/01/24 11:02:41;;;;;;;21.35;10.55;;;;;;;5.76;77.43;103385.69;5074344;28;20036;-70
2022/01/24 11:05:24;;;;;;;29.90;14.30;;;;;;;5.74;77.64;103379.66;5073397;28;20080;-71
2022/01/24 11:08:01;;;;;;;27.20;14.30;;;;;;;5.72;77.92;103374.47;5073868;28;20032;-72
2022/01/24 11:10:29;;;;;;;29.23;13.95;;;;;;;5.72;78.13;103364.72;5072459;28;20028;-71
2022/01/24 11:12:56;;;;;;;25.73;13.00;;;;;;;5.72;77.90;103370.03;5071339;28;20032;-73
2022/01/24 11:15:23;;;;;;;26.80;13.80;;;;;;;5.76;78.25;103372.44;5075871;28;20047;-72
2022/01/24 11:17:49;;;;;;;28.48;15.65;;;;;;;5.75;78.46;103373.41;5072391;28;20452;-73
2022/01/24 11:20:18;;;;;;;30.45;14.65;;;;;;;5.75;76.89;103370.78;5073563;28;20036;-72
2022/01/24 11:22:58;;;;;;;26.83;14.43;;;;;;;5.73;78.45;103370.84;5076925;28;20020;-72
2022/01/24 11:25:26;;;;;;;26.02;13.32;;;;;;;5.74;77.55;103361.97;5077835;28;20025;-72
2022/01/24 11:27:52;;;;;;;27.60;14.18;;;;;;;5.69;78.07;103348.19;5076807;28;20032;-72
2022/01/24 11:30:22;;;;;;;27.58;15.00;;;;;;;5.71;77.61;103355.09;5076760;28;20039;-71
2022/01/24 11:32:53;;;;;;;27.42;14.30;;;;;;;5.72;76.03;103362.06;5076837;28;20043;-72
2022/01/24 11:35:33;;;;;;;30.55;16.35;;;;;;;5.74;77.44;103359.34;5076948;28;20098;-72
2022/01/24 11:37:59;;;;;;;29.83;16.13;;;;;;;5.74;77.30;103361.09;5076836;28;20023;-72
2022/01/24 11:40:26;;;;;;;32.22;15.95;;;;;;;5.80;76.75;103363.38;5075297;28;20028;-71
2022/01/24 11:42:52;;;;;;;29.63;14.90;;;;;;;5.77;76.20;103372.38;5077231;28;20028;-71
2022/01/24 11:45:55;;;;;;;32.15;17.73;;;;;;;5.76;76.65;103375.09;5076970;28;20032;-72
2022/01/24 11:48:22;;;;;;;30.52;15.18;;;;;;;5.73;75.91;103370.84;5076551;28;20020;-72
2022/01/24 11:51:06;;;;;;;27.38;13.98;;;;;;;5.72;77.20;103366.53;5077296;28;20074;-74
2022/01/24 11:53:36;;;;;;;31.05;16.00;;;;;;;5.71;76.14;103360.38;5076623;28;20067;-72
2022/01/24 11:56:22;;;;;;;29.13;15.68;;;;;;;5.70;77.37;103350.72;5072797;28;20472;-72
2022/01/24 11:58:49;;;;;;;30.42;15.15;;;;;;;5.67;75.80;103347.44;5092147;28;20020;-72
2022/01/24 12:01:38;;;;;;;28.98;13.85;;;;;;;5.72;76.73;103348.84;5083768;28;20086;-72
2022/01/24 12:04:04;;;;;;;25.75;13.40;;;;;;;5.71;76.37;103348.94;5077291;28;20028;-72
2022/01/24 12:06:29;;;;;;;27.15;15.02;;;;;;;5.71;75.93;103344.50;5092164;28;20047;-73
2022/01/24 12:09:05;;;;;;;28.50;13.95;;;;;;;5.76;76.58;103344.16;5090488;28;20508;-73
2022/01/24 12:11:35;;;;;;;27.52;14.57;;;;;;;5.84;76.09;103341.88;5090267;28;20487;-73
2022/01/24 12:14:12;;;;;;;27.55;14.38;;;;;;;5.87;77.00;103338.19;5091228;28;20826;-73
2022/01/24 12:16:42;;;;;;;30.35;15.88;;;;;;;5.89;76.22;103342.41;5091647;28;20053;-72
2022/01/24 12:19:10;;;;;;;28.48;14.07;;;;;;;5.90;76.11;103344.09;5092044;28;20027;-72
2022/01/24 12:21:38;;;;;;;30.58;15.25;;;;;;;5.93;75.22;103349.22;5091676;28;20551;-73
2022/01/24 12:24:11;;;;;;;28.13;16.90;;;;;;;5.93;74.57;103349.22;5091749;28;20217;-72
2022/01/24 12:26:46;;;;;;;31.75;15.40;;;;;;;5.91;74.74;103353.72;5090763;28;20039;-73
2022/01/24 12:29:26;;;;;;;28.50;15.95;;;;;;;5.93;76.73;103345.69;5070504;28;20033;-73
2022/01/24 12:31:58;;;;;;;31.50;16.85;;;;;;;5.92;75.86;103342.19;5083530;28;20484;-73
2022/01/24 12:34:41;;;;;;;29.98;16.38;;;;;;;5.95;76.59;103329.72;5088898;28;20089;-73
2022/01/24 12:37:20;;;;;;;24.67;13.00;;;;;;;5.97;75.67;103333.09;5091478;28;20020;-72
2022/01/24 12:40:03;;;;;;;28.27;14.40;;;;;;;6.06;75.81;103325.38;5091531;28;20119;-72
2022/01/24 12:48:15;;;;;;;26.30;13.07;;;;;;;6.09;72.39;103319.03;5077051;28;20043;-72
2022/01/24 12:50:51;;;;;;;32.80;15.15;;;;;;;6.05;74.90;103312.22;5076627;28;20096;-71
2022/01/24 12:53:17;;;;;;;25.92;14.05;;;;;;;6.03;76.12;103312.34;5075486;28;20106;-71
2022/01/24 12:55:44;;;;;;;28.23;14.35;;;;;;;6.01;76.11;103308.13;5075771;28;20036;-72
2022/01/24 12:58:09;;;;;;;29.48;16.33;;;;;;;6.02;76.86;103310.66;5075283;28;20055;-73
2022/01/24 13:00:37;;;;;;;27.90;15.73;;;;;;;6.03;75.67;103303.56;5075128;28;20114;-73
2022/01/24 13:03:03;;;;;;;27.42;15.38;;;;;;;5.99;74.04;103300.25;5076592;28;20032;-71
2022/01/24 13:05:28;;;;;;;26.90;14.20;;;;;;;5.97;75.98;103309.28;5075459;28;20055;-71
2022/01/24 13:07:57;;;;;;;30.00;16.27;;;;;;;5.94;76.14;103294.44;5075260;28;20120;-74
2022/01/24 13:10:30;;;;;;;26.27;13.23;;;;;;;5.97;75.62;103290.72;5075557;28;20074;-70
2022/01/24 13:13:07;;;;;;;29.00;15.45;;;;;;;5.92;76.49;103294.53;5075086;28;20036;-71
2022/01/24 13:21:16;;;;;;;28.67;15.23;;;;;;;6.05;75.73;103294.56;5075761;28;20073;-71